createdAt,value
2019-01-23T00:00:39.007Z,20.30
2019-01-23T00:05:40.553Z,18.47
2019-01-23T00:10:41.954Z,19.90
2019-01-23T00:15:43.520Z,18.87
2019-01-23T00:20:44.861Z,19.27
2019-01-23T00:25:47.360Z,18.30
2019-01-23T00:30:48.974Z,18.77
2019-01-23T00:35:50.299Z,20.17
2019-01-23T00:40:51.784Z,18.70
2019-01-23T00:45:53.143Z,22.73
2019-01-23T00:50:55.675Z,21.47
2019-01-23T00:55:57.276Z,19.23
2019-01-23T01:00:58.855Z,21.07
2019-01-23T01:06:00.291Z,19.87
2019-01-23T01:11:01.696Z,19.50
2019-01-23T01:16:03.280Z,19.67
2019-01-23T01:21:04.716Z,18.63
2019-01-23T01:26:06.103Z,19.70
2019-01-23T01:31:07.643Z,19.37
2019-01-23T01:36:08.989Z,20.37
2019-01-23T01:41:10.368Z,18.33
2019-01-23T01:46:11.851Z,19.53
2019-01-23T01:51:13.266Z,18.60
2019-01-23T01:56:14.768Z,17.80
2019-01-23T02:01:16.197Z,16.93
2019-01-23T02:06:17.547Z,18.13
2019-01-23T02:11:18.964Z,19.20
2019-01-23T02:16:20.451Z,18.67
2019-01-23T02:21:21.794Z,17.63
2019-01-23T02:26:23.193Z,20.60
2019-01-23T02:31:26.106Z,19.63
2019-01-23T02:36:27.429Z,16.50
2019-01-23T02:41:28.814Z,18.60
2019-01-23T02:46:30.148Z,15.83
2019-01-23T02:51:31.536Z,17.77
2019-01-23T02:56:32.907Z,16.70
2019-01-23T03:01:34.238Z,17.03
2019-01-23T03:06:35.591Z,15.83
2019-01-23T03:11:36.969Z,16.43
2019-01-23T03:16:38.368Z,15.83
2019-01-23T03:21:39.695Z,15.77
2019-01-23T03:26:41.098Z,15.47
2019-01-23T03:31:42.477Z,17.97
2019-01-23T03:36:43.827Z,15.00
2019-01-23T03:41:45.252Z,15.93
2019-01-23T03:46:46.764Z,15.37
2019-01-23T03:51:48.135Z,15.37
2019-01-23T03:56:49.577Z,13.53
2019-01-23T04:01:50.937Z,15.43
2019-01-23T04:06:52.287Z,13.23
2019-01-23T04:11:53.637Z,14.53
2019-01-23T04:16:55.050Z,16.07
2019-01-23T04:21:56.698Z,17.43
2019-01-23T04:26:58.067Z,19.00
2019-01-23T04:31:59.439Z,18.83
2019-01-23T04:37:00.786Z,21.40
2019-01-23T04:42:02.279Z,22.13
2019-01-23T04:47:03.736Z,18.17
2019-01-23T04:52:09.691Z,19.50
2019-01-23T04:57:11.055Z,21.53
2019-01-23T05:02:12.437Z,20.10
2019-01-23T05:07:13.869Z,20.20
2019-01-23T05:12:15.231Z,19.93
2019-01-23T05:17:16.630Z,20.40
2019-01-23T05:22:17.976Z,20.20
2019-01-23T05:27:19.322Z,20.07
2019-01-23T05:32:20.755Z,18.27
2019-01-23T05:37:22.096Z,19.83
2019-01-23T05:42:23.550Z,18.60
2019-01-23T05:47:24.914Z,19.93
2019-01-23T05:52:26.375Z,19.33
2019-01-23T05:57:27.714Z,19.63
2019-01-23T06:02:29.115Z,18.77
2019-01-23T06:07:30.435Z,19.33
2019-01-23T06:12:32.849Z,19.73
2019-01-23T06:17:34.238Z,20.43
2019-01-23T06:22:35.697Z,19.47
2019-01-23T06:27:37.157Z,19.57
2019-01-23T06:32:38.595Z,22.47
2019-01-23T06:37:40.060Z,20.20
2019-01-23T06:42:41.557Z,22.57
2019-01-23T06:47:43.369Z,23.10
2019-01-23T06:52:44.887Z,23.80
2019-01-23T06:57:46.363Z,24.13
2019-01-23T07:02:47.998Z,21.33
2019-01-23T07:07:49.378Z,21.60
2019-01-23T07:12:50.845Z,22.37
2019-01-23T07:17:52.324Z,20.40
2019-01-23T07:22:53.696Z,22.87
2019-01-23T07:27:55.261Z,21.93
2019-01-23T07:32:56.731Z,24.43
2019-01-23T07:37:58.268Z,21.77
2019-01-23T07:42:59.697Z,20.07
2019-01-23T07:48:01.099Z,21.30
2019-01-23T07:53:02.701Z,20.50
2019-01-23T07:58:04.030Z,21.60
2019-01-23T08:03:05.417Z,22.97
2019-01-23T08:08:06.869Z,19.63
2019-01-23T08:13:08.260Z,20.40
2019-01-23T08:18:09.628Z,23.10
2019-01-23T08:23:11.075Z,22.70
2019-01-23T08:28:12.568Z,24.17
2019-01-23T08:33:13.915Z,21.17
2019-01-23T08:38:15.263Z,22.00
2019-01-23T08:43:16.745Z,24.73
2019-01-23T08:48:18.099Z,24.23
2019-01-23T08:53:19.477Z,21.57
2019-01-23T08:58:20.906Z,23.13
2019-01-23T09:03:22.325Z,22.23
2019-01-23T09:08:23.644Z,24.87
2019-01-23T09:13:25.046Z,24.10
2019-01-23T09:18:26.473Z,25.07
2019-01-23T09:23:27.847Z,24.00
2019-01-23T09:28:29.233Z,24.07
2019-01-23T09:33:44.854Z,24.13
2019-01-23T09:39:25.625Z,22.70
2019-01-23T09:45:21.859Z,25.87
2019-01-23T09:50:31.709Z,25.93
2019-01-23T09:55:33.059Z,28.00
2019-01-23T10:00:34.439Z,25.47
2019-01-23T10:05:35.821Z,28.27
2019-01-23T10:10:37.153Z,28.37
2019-01-23T10:15:44.049Z,27.83
2019-01-23T10:20:45.454Z,24.53
2019-01-23T10:25:46.989Z,25.83
2019-01-23T10:30:48.408Z,25.97
2019-01-23T10:35:49.922Z,24.63
2019-01-23T10:40:51.329Z,24.57
2019-01-23T10:45:52.871Z,26.70
2019-01-23T10:50:54.230Z,27.40
2019-01-23T10:55:55.574Z,27.77
2019-01-23T11:00:57.063Z,30.73
2019-01-23T11:05:58.608Z,29.37
2019-01-23T11:11:00.018Z,28.70
2019-01-23T11:16:01.463Z,29.80
2019-01-23T11:21:03.337Z,31.37
2019-01-23T11:26:05.079Z,30.40
2019-01-23T11:31:06.469Z,29.60
2019-01-23T11:36:07.835Z,29.73
2019-01-23T11:41:09.277Z,28.87
2019-01-23T11:46:10.663Z,32.83
2019-01-23T11:51:12.143Z,29.97
2019-01-23T11:56:13.593Z,36.20
2019-01-23T12:01:14.976Z,35.60
2019-01-23T12:06:16.506Z,32.03
2019-01-23T12:11:17.934Z,33.77
2019-01-23T12:16:19.434Z,33.93
2019-01-23T12:21:20.855Z,36.80
2019-01-23T12:26:22.331Z,37.43
2019-01-23T12:31:23.783Z,37.80
2019-01-23T12:36:25.233Z,41.10
2019-01-23T12:41:26.601Z,41.00
2019-01-23T12:46:27.940Z,42.40
2019-01-23T12:51:29.986Z,39.80
2019-01-23T12:56:32.533Z,38.93
2019-01-23T13:01:33.906Z,38.70
2019-01-23T13:06:36.287Z,38.27
2019-01-23T13:11:37.816Z,40.70
2019-01-23T13:16:39.213Z,42.17
2019-01-23T13:21:40.568Z,38.80
2019-01-23T13:26:41.986Z,39.87
2019-01-23T13:31:49.108Z,43.00
2019-01-23T13:36:46.718Z,43.27
2019-01-23T13:41:48.383Z,44.67
2019-01-23T13:46:49.831Z,44.50
2019-01-23T13:51:51.223Z,43.33
2019-01-23T13:56:52.585Z,43.73
2019-01-23T14:01:56.464Z,40.63
2019-01-23T14:06:57.262Z,40.90
2019-01-23T14:11:58.641Z,40.00
2019-01-23T14:17:00.082Z,39.30
2019-01-23T14:22:01.559Z,43.47
2019-01-23T14:27:03.039Z,46.47
2019-01-23T14:32:04.494Z,41.23
2019-01-23T14:37:06.067Z,42.13
2019-01-23T14:42:07.494Z,42.00
2019-01-23T14:47:08.951Z,37.37
2019-01-23T14:52:10.528Z,42.63
2019-01-23T14:57:11.898Z,38.37
2019-01-23T15:02:13.261Z,39.10
2019-01-23T15:07:14.640Z,41.00
2019-01-23T15:12:16.023Z,37.27
2019-01-23T15:17:17.487Z,43.23
2019-01-23T15:22:18.918Z,40.83
2019-01-23T15:27:20.343Z,39.87
2019-01-23T15:32:21.797Z,43.00
2019-01-23T15:37:23.215Z,42.53
2019-01-23T15:42:24.592Z,41.00
2019-01-23T15:47:25.978Z,43.33
2019-01-23T15:52:27.319Z,40.50
2019-01-23T15:57:28.728Z,39.50
2019-01-23T16:02:30.141Z,45.30
2019-01-23T16:07:31.547Z,42.63
2019-01-23T16:12:33.003Z,39.83
2019-01-23T16:17:34.431Z,44.07
2019-01-23T16:22:35.914Z,38.80
2019-01-23T16:27:37.296Z,43.73
2019-01-23T16:32:38.642Z,41.73
2019-01-23T16:37:40.220Z,41.53
2019-01-23T16:42:43.986Z,47.90
2019-01-23T16:47:45.797Z,44.40
2019-01-23T16:52:48.411Z,43.73
2019-01-23T16:57:50.798Z,43.80
2019-01-23T17:02:53.370Z,45.03
2019-01-23T17:07:56.275Z,44.90
2019-01-23T17:12:57.855Z,46.30
2019-01-23T17:17:59.333Z,44.70
2019-01-23T17:23:00.774Z,43.17
2019-01-23T17:28:04.464Z,44.67
2019-01-23T17:33:05.983Z,48.10
2019-01-23T17:38:07.310Z,49.27
2019-01-23T17:43:09.616Z,47.10
2019-01-23T17:48:11.708Z,50.57
2019-01-23T17:53:13.047Z,49.13
2019-01-23T17:58:14.745Z,47.03
2019-01-23T18:03:17.535Z,46.83
2019-01-23T18:08:19.464Z,48.87
2019-01-23T18:13:21.282Z,48.20
2019-01-23T18:18:22.626Z,46.93
2019-01-23T18:23:24.202Z,49.27
2019-01-23T18:28:25.562Z,48.13
2019-01-23T18:33:38.450Z,49.20
2019-01-23T18:39:04.235Z,53.80
2019-01-23T18:44:38.931Z,55.23
2019-01-23T18:49:49.108Z,53.83
2019-01-23T18:54:50.584Z,48.77
2019-01-23T18:59:58.979Z,48.57
2019-01-23T19:04:55.424Z,49.70
2019-01-23T19:09:56.754Z,51.73
2019-01-23T19:14:58.239Z,53.07
2019-01-23T19:19:59.698Z,47.70
2019-01-23T19:25:01.191Z,49.77
2019-01-23T19:30:13.719Z,49.87
2019-01-23T19:35:15.484Z,50.63
2019-01-23T19:40:18.087Z,46.53
2019-01-23T19:45:20.560Z,46.70
2019-01-23T19:50:21.935Z,43.87
2019-01-23T19:55:23.263Z,49.33
2019-01-23T20:00:24.820Z,46.03
2019-01-23T20:05:26.295Z,47.80
2019-01-23T20:10:27.812Z,47.33
2019-01-23T20:15:29.355Z,45.47
2019-01-23T20:20:30.845Z,44.57
2019-01-23T20:25:32.531Z,48.50
2019-01-23T20:30:36.271Z,48.33
2019-01-23T20:35:37.658Z,43.60
2019-01-23T20:40:39.187Z,44.83
2019-01-23T20:45:40.692Z,46.23
2019-01-23T20:50:42.106Z,44.77
2019-01-23T20:55:43.911Z,43.80
2019-01-23T21:00:45.519Z,43.60
2019-01-23T21:05:46.980Z,45.37
2019-01-23T21:10:48.375Z,44.53
2019-01-23T21:15:49.797Z,40.30
2019-01-23T21:20:51.195Z,41.37
2019-01-23T21:25:52.568Z,43.57
2019-01-23T21:30:53.889Z,41.43
2019-01-23T21:35:55.298Z,42.37
2019-01-23T21:40:56.748Z,42.03
2019-01-23T21:45:58.114Z,39.17
2019-01-23T21:50:59.441Z,39.47
2019-01-23T21:56:00.855Z,40.07
2019-01-23T22:01:02.924Z,40.23
2019-01-23T22:06:04.391Z,42.40
2019-01-23T22:11:05.753Z,40.13
2019-01-23T22:16:07.190Z,38.87
2019-01-23T22:21:08.659Z,38.87
2019-01-23T22:26:10.047Z,39.00
2019-01-23T22:31:11.383Z,39.27
2019-01-23T22:36:12.759Z,38.93
2019-01-23T22:41:14.144Z,37.80
2019-01-23T22:46:15.701Z,38.13
2019-01-23T22:51:17.039Z,39.83
2019-01-23T22:56:18.546Z,43.90
2019-01-23T23:01:21.116Z,37.80
2019-01-23T23:06:22.498Z,39.90
2019-01-23T23:11:24.036Z,41.17
2019-01-23T23:16:25.422Z,42.07
2019-01-23T23:21:26.754Z,41.23
2019-01-23T23:26:28.139Z,41.27
2019-01-23T23:31:29.530Z,44.00
2019-01-23T23:36:30.977Z,44.70
2019-01-23T23:41:32.357Z,43.30
2019-01-23T23:46:33.788Z,40.10
2019-01-23T23:51:35.214Z,42.33
2019-01-23T23:56:36.614Z,41.70
